Time;durP1;ratioP1;P1;durP2;ratioP2;P2;SDS_P1;SDS_P2;PMS_P1;PMS_P2;Temp;Humidity;BMP_temperature;BMP_pressure;BME280_temperature;BME280_humidity;BME280_pressure;Samples;Min_cycle;Max_cycle;Signal;HPM_P1;HPM_P2
2021/12/17 00:01:10;;;;;;;18.20;8.70;;;;;;;6.83;100.00;103836.41;10260279;28;20041;-71
2021/12/17 00:06:16;;;;;;;16.55;8.25;;;;;;;6.86;100.00;103833.25;10267611;28;20072;-70
2021/12/17 00:11:14;;;;;;;16.30;7.97;;;;;;;6.89;100.00;103835.56;10272880;28;20064;-71
2021/12/17 00:16:19;;;;;;;16.35;7.50;;;;;;;6.83;100.00;103828.25;10267115;28;20040;-68
2021/12/17 00:52:49;;;;;;;7.93;4.38;;;;;;;6.71;100.00;103838.16;10269907;28;20871;-70
2021/12/17 00:57:46;;;;;;;10.10;4.82;;;;;;;6.81;100.00;103829.53;10269062;28;20044;-69
2021/12/17 01:02:42;;;;;;;11.80;4.28;;;;;;;6.85;100.00;103831.59;10265395;28;20095;-71
2021/12/17 01:07:43;;;;;;;10.48;4.60;;;;;;;6.95;100.00;103831.13;10269705;28;20621;-68
2021/12/17 01:12:39;;;;;;;11.20;5.20;;;;;;;6.91;100.00;103814.41;10265065;28;20111;-71
2021/12/17 01:17:40;;;;;;;9.48;4.70;;;;;;;6.80;100.00;103817.81;10269562;28;20065;-71
2021/12/17 01:43:29;;;;;;;14.18;8.18;;;;;;;6.77;100.00;103807.34;10270591;28;20041;-71
2021/12/17 01:48:33;;;;;;;17.83;8.70;;;;;;;6.83;100.00;103822.00;10266907;28;20577;-71
2021/12/17 02:04:03;;;;;;;16.40;8.63;;;;;;;6.88;100.00;103801.25;10260711;28;20045;-70
2021/12/17 02:09:00;;;;;;;14.50;7.85;;;;;;;6.90;100.00;103796.41;10267887;28;20041;-70
2021/12/17 02:35:35;;;;;;;15.13;7.43;;;;;;;6.86;100.00;103772.59;10264800;28;20052;-67
2021/12/17 02:50:23;;;;;;;17.88;9.23;;;;;;;6.80;100.00;103777.03;10268263;28;20072;-69
2021/12/17 02:55:21;;;;;;;21.88;10.00;;;;;;;6.90;100.00;103769.22;10264202;28;20802;-68
2021/12/17 03:00:18;;;;;;;18.67;8.85;;;;;;;6.91;100.00;103792.63;10266243;28;20081;-70
2021/12/17 03:05:15;;;;;;;21.52;10.43;;;;;;;6.92;100.00;103799.75;10264668;28;20049;-70
2021/12/17 03:10:14;;;;;;;17.08;9.23;;;;;;;6.98;100.00;103797.22;10264232;28;20045;-70
2021/12/17 03:15:21;;;;;;;15.45;7.38;;;;;;;6.94;100.00;103794.94;10263255;28;20482;-70
2021/12/17 03:25:33;;;;;;;13.50;6.93;;;;;;;7.01;100.00;103796.78;10260625;28;20119;-70
2021/12/17 03:30:29;;;;;;;13.60;6.95;;;;;;;6.93;100.00;103776.94;10261954;28;20502;-71
2021/12/17 03:35:26;;;;;;;12.15;6.75;;;;;;;7.01;100.00;103784.03;10263921;28;20087;-69
2021/12/17 03:40:22;;;;;;;12.32;7.03;;;;;;;7.03;100.00;103778.34;10267753;28;20088;-69
2021/12/17 03:45:19;;;;;;;11.80;7.43;;;;;;;6.89;100.00;103762.13;10272279;28;20502;-70
2021/12/17 03:50:16;;;;;;;12.57;8.15;;;;;;;6.83;100.00;103745.84;10274309;28;20044;-70
2021/12/17 03:55:12;;;;;;;14.35;9.50;;;;;;;6.86;100.00;103762.53;10270506;28;20127;-70
2021/12/17 04:00:11;;;;;;;12.48;7.78;;;;;;;6.84;100.00;103759.19;10270530;28;20085;-70
2021/12/17 04:05:08;;;;;;;10.45;6.20;;;;;;;6.77;100.00;103755.69;10257764;28;20046;-71
2021/12/17 04:10:05;;;;;;;10.13;6.43;;;;;;;6.81;100.00;103767.81;10266813;28;20048;-69
2021/12/17 04:15:03;;;;;;;11.02;6.97;;;;;;;6.81;100.00;103770.53;10265465;28;20132;-68
2021/12/17 04:20:00;;;;;;;9.25;5.40;;;;;;;6.60;100.00;103768.13;10272987;28;20049;-69
2021/12/17 04:24:56;;;;;;;8.45;5.55;;;;;;;6.63;100.00;103762.25;10271592;28;20063;-71
2021/12/17 04:29:53;;;;;;;8.02;4.78;;;;;;;6.62;100.00;103766.88;10267889;28;20099;-69
2021/12/17 04:34:50;;;;;;;9.13;4.00;;;;;;;6.56;100.00;103761.44;10265055;28;20085;-70
2021/12/17 04:39:46;;;;;;;8.38;4.53;;;;;;;6.52;100.00;103772.78;10271100;28;20546;-68
2021/12/17 04:44:50;;;;;;;7.03;3.85;;;;;;;6.63;100.00;103767.69;10264358;28;20475;-69
2021/12/17 05:00:26;;;;;;;10.07;4.40;;;;;;;6.68;100.00;103767.88;10268216;28;20464;-69
2021/12/17 05:05:28;;;;;;;10.80;4.60;;;;;;;6.62;100.00;103766.03;10263641;28;20077;-71
2021/12/17 05:20:49;;;;;;;14.98;4.65;;;;;;;6.64;100.00;103791.97;10257350;28;20049;-70
2021/12/17 05:25:46;;;;;;;12.23;5.03;;;;;;;6.63;100.00;103797.59;10258211;28;20049;-70
2021/12/17 05:30:47;;;;;;;13.10;5.13;;;;;;;6.58;100.00;103787.38;10257338;28;20049;-71
2021/12/17 05:35:44;;;;;;;17.35;5.43;;;;;;;6.52;100.00;103788.22;10258232;28;20501;-70
2021/12/17 05:40:42;;;;;;;12.68;5.15;;;;;;;6.33;100.00;103779.09;10253859;28;20041;-69
2021/12/17 05:50:41;;;;;;;10.00;4.28;;;;;;;6.41;100.00;103781.59;10270920;28;20044;-70
2021/12/17 05:55:39;;;;;;;10.40;4.22;;;;;;;6.38;100.00;103768.41;10256250;28;20127;-69
2021/12/17 06:00:38;;;;;;;7.60;4.03;;;;;;;6.30;100.00;103757.78;10253701;28;20072;-68
2021/12/17 06:05:35;;;;;;;11.23;3.78;;;;;;;6.20;100.00;103768.28;10235703;28;20103;-69
2021/12/17 06:10:32;;;;;;;11.75;4.00;;;;;;;6.04;100.00;103764.97;10258853;28;20171;-68
2021/12/17 06:15:29;;;;;;;9.25;4.50;;;;;;;6.06;100.00;103752.00;10254737;28;20041;-69
2021/12/17 06:20:25;;;;;;;10.90;4.40;;;;;;;6.17;100.00;103774.97;10249401;28;20232;-68
2021/12/17 06:25:22;;;;;;;12.40;6.05;;;;;;;6.22;100.00;103791.47;10244838;28;20091;-69
2021/12/17 06:30:21;;;;;;;11.57;5.43;;;;;;;6.07;100.00;103780.84;10256474;28;20107;-68
2021/12/17 06:35:18;;;;;;;12.65;5.95;;;;;;;6.02;100.00;103785.25;10268247;28;20068;-69
2021/12/17 06:40:14;;;;;;;9.07;4.40;;;;;;;5.94;100.00;103789.03;10259241;28;20129;-68
2021/12/17 06:45:20;;;;;;;8.98;3.70;;;;;;;6.00;100.00;103800.91;10238003;28;20052;-69
2021/12/17 07:06:06;;;;;;;12.88;6.35;;;;;;;5.79;100.00;103804.69;10259021;28;20502;-70
2021/12/17 07:11:14;;;;;;;;;;;;;;;5.96;100.00;103805.94;10259161;28;20127;-70
2021/12/17 07:41:57;;;;;;;20.00;8.25;;;;;;;5.84;100.00;103810.31;10262074;28;20514;-70
2021/12/17 07:46:54;;;;;;;18.15;7.57;;;;;;;5.85;100.00;103814.72;10247911;28;20092;-70
2021/12/17 07:51:51;;;;;;;18.48;7.75;;;;;;;5.84;100.00;103813.84;10253590;28;20067;-70
2021/12/17 07:56:47;;;;;;;16.60;7.15;;;;;;;5.82;100.00;103823.25;10257977;28;20061;-69
2021/12/17 08:01:44;;;;;;;14.40;6.15;;;;;;;5.83;100.00;103823.06;10249165;28;20776;-71
2021/12/17 08:06:41;;;;;;;15.70;6.07;;;;;;;5.80;100.00;103823.47;10251210;28;20064;-71
2021/12/17 08:11:39;;;;;;;13.82;5.90;;;;;;;5.70;100.00;103834.75;10248908;28;20108;-69
2021/12/17 08:16:51;;;;;;;14.80;6.38;;;;;;;5.84;100.00;103834.75;10238446;28;20761;-70
2021/12/17 08:32:07;;;;;;;17.05;5.03;;;;;;;5.89;100.00;103840.38;10264087;28;20103;-69
2021/12/17 08:37:05;;;;;;;9.25;3.28;;;;;;;5.77;100.00;103840.16;10269901;28;20067;-69
2021/12/17 08:42:02;;;;;;;7.70;3.08;;;;;;;5.98;100.00;103831.00;10261113;28;20045;-69
2021/12/17 08:46:58;;;;;;;4.95;2.10;;;;;;;6.01;100.00;103836.03;10270650;28;20495;-69
2021/12/17 08:51:55;;;;;;;4.50;1.73;;;;;;;5.98;100.00;103832.88;10266670;28;20037;-69
2021/12/17 08:56:51;;;;;;;4.57;2.00;;;;;;;5.91;100.00;103830.16;10269444;28;20050;-70
2021/12/17 09:01:48;;;;;;;6.15;2.33;;;;;;;5.97;100.00;103826.63;10258733;28;19975;-69
2021/12/17 09:06:44;;;;;;;5.53;2.90;;;;;;;6.00;100.00;103828.09;10263637;28;20506;-69
2021/12/17 09:11:42;;;;;;;8.20;3.30;;;;;;;5.95;100.00;103831.44;10267318;28;20110;-70
2021/12/17 09:16:39;;;;;;;8.23;3.20;;;;;;;6.00;100.00;103834.34;10262665;28;20049;-69
2021/12/17 09:21:35;;;;;;;8.25;4.03;;;;;;;6.06;100.00;103855.25;10269281;28;20045;-69
2021/12/17 09:26:33;;;;;;;11.45;6.63;;;;;;;6.00;100.00;103845.22;10268689;28;20072;-69
2021/12/17 09:31:29;;;;;;;13.70;8.80;;;;;;;5.78;100.00;103857.28;10265977;28;20720;-71
2021/12/17 09:36:26;;;;;;;16.65;10.35;;;;;;;5.81;100.00;103856.91;10265705;28;20072;-69
2021/12/17 09:41:23;;;;;;;23.13;13.98;;;;;;;5.76;100.00;103859.41;10269841;28;20088;-69
2021/12/17 09:46:20;;;;;;;19.95;12.77;;;;;;;5.66;100.00;103871.50;10264423;28;20081;-69
2021/12/17 09:51:18;;;;;;;22.70;14.93;;;;;;;5.74;100.00;103869.63;10259643;28;20080;-69
2021/12/17 09:56:15;;;;;;;23.92;14.57;;;;;;;5.74;100.00;103872.34;10259017;28;20049;-69
2021/12/17 10:01:12;;;;;;;23.75;14.82;;;;;;;5.76;100.00;103875.69;10265311;28;20101;-68
2021/12/17 10:06:22;;;;;;;23.42;13.95;;;;;;;5.78;100.00;103868.16;10260194;28;20045;-69
2021/12/17 10:11:20;;;;;;;24.48;15.80;;;;;;;5.89;100.00;103881.13;10263411;28;20132;-69
2021/12/17 10:16:20;;;;;;;24.08;13.88;;;;;;;5.86;100.00;103870.69;10260818;28;20080;-70
2021/12/17 10:21:20;;;;;;;18.20;11.15;;;;;;;5.84;100.00;103876.31;10252029;28;20124;-70
2021/12/17 10:26:18;;;;;;;16.92;9.82;;;;;;;5.69;100.00;103881.13;10255705;28;20045;-70
2021/12/17 10:31:15;;;;;;;14.98;9.52;;;;;;;5.93;100.00;103876.94;10265265;28;20053;-70
2021/12/17 10:36:13;;;;;;;15.27;7.35;;;;;;;5.97;100.00;103861.94;10259716;28;20969;-70
2021/12/17 10:41:14;;;;;;;11.48;7.35;;;;;;;6.04;100.00;103862.75;10265497;28;20045;-70
2021/12/17 10:46:26;;;;;;;16.50;9.68;;;;;;;5.96;100.00;103854.81;10254466;28;20103;-70
2021/12/17 10:56:39;;;;;;;20.70;12.93;;;;;;;6.13;100.00;103857.09;10250449;28;20048;-70
2021/12/17 11:01:46;;;;;;;18.80;12.65;;;;;;;6.18;100.00;103863.59;10264217;28;20083;-69
2021/12/17 11:06:56;;;;;;;21.63;13.20;;;;;;;6.13;100.00;103859.81;10247055;28;20045;-69
2021/12/17 11:11:54;;;;;;;21.55;14.07;;;;;;;5.92;100.00;103853.56;10248247;28;20077;-69
2021/12/17 11:16:51;;;;;;;23.45;14.00;;;;;;;6.07;100.00;103835.16;10252264;28;20141;-68
2021/12/17 11:21:48;;;;;;;24.55;15.80;;;;;;;6.22;100.00;103848.53;10240265;28;20049;-69
2021/12/17 11:26:45;;;;;;;22.92;14.25;;;;;;;6.23;100.00;103838.50;10248689;28;20055;-69
2021/12/17 11:31:42;;;;;;;23.45;13.20;;;;;;;6.22;100.00;103834.97;10246039;28;20084;-69
2021/12/17 11:36:39;;;;;;;18.27;11.60;;;;;;;6.21;100.00;103818.84;10250673;28;20460;-69
2021/12/17 11:42:16;;;;;;;19.75;10.43;;;;;;;6.16;100.00;103837.69;10260130;28;20507;-68
2021/12/17 11:47:13;;;;;;;19.98;12.52;;;;;;;6.08;100.00;103836.84;10245235;28;20094;-70
2021/12/17 11:52:10;;;;;;;17.73;9.35;;;;;;;6.16;100.00;103832.25;10254784;28;20139;-69
2021/12/17 11:57:09;;;;;;;14.75;8.20;;;;;;;6.07;100.00;103835.16;10248126;28;20144;-69
2021/12/17 12:02:22;;;;;;;12.80;7.47;;;;;;;6.10;100.00;103832.06;10270260;28;20080;-69
2021/12/17 12:07:24;;;;;;;12.20;6.50;;;;;;;6.23;100.00;103822.19;10263069;28;20049;-69
2021/12/17 12:12:21;;;;;;;13.50;7.33;;;;;;;6.39;100.00;103826.34;10269737;28;20555;-69
2021/12/17 12:17:55;;;;;;;12.48;6.93;;;;;;;6.45;100.00;103831.75;10260151;28;20550;-70
2021/12/17 12:23:22;;;;;;;13.60;7.00;;;;;;;6.46;100.00;103833.41;10253544;28;20076;-69
2021/12/17 12:28:44;;;;;;;13.93;7.95;;;;;;;6.56;100.00;103834.84;10254322;28;20049;-69
2021/12/17 12:34:08;;;;;;;13.35;7.40;;;;;;;6.49;100.00;103837.59;10259150;28;20041;-69
2021/12/17 12:39:46;;;;;;;11.15;5.30;;;;;;;6.51;100.00;103827.34;10259383;28;20037;-70
2021/12/17 12:44:42;;;;;;;10.48;5.53;;;;;;;6.56;100.00;103832.97;10252583;28;20650;-70
2021/12/17 12:49:47;;;;;;;10.65;4.85;;;;;;;6.45;100.00;103834.47;10264782;28;20471;-69
2021/12/17 12:54:49;;;;;;;9.68;5.10;;;;;;;6.49;100.00;103827.53;10258541;28;20074;-70
2021/12/17 12:59:46;;;;;;;11.50;5.22;;;;;;;6.50;100.00;103818.34;10266999;28;20102;-69
2021/12/17 13:04:43;;;;;;;8.75;4.20;;;;;;;6.47;100.00;103797.03;10267998;28;20139;-69
2021/12/17 13:09:43;;;;;;;12.32;5.15;;;;;;;6.62;100.00;103809.53;10268680;28;20091;-69
2021/12/17 13:14:43;;;;;;;12.25;5.68;;;;;;;6.67;100.00;103801.56;10255653;28;20056;-69
2021/12/17 13:25:04;;;;;;;13.63;6.88;;;;;;;6.63;100.00;103789.44;10262934;28;20136;-69
2021/12/17 13:30:01;;;;;;;14.38;7.93;;;;;;;6.69;100.00;103788.59;10265490;28;20565;-70
2021/12/17 13:34:59;;;;;;;17.73;9.40;;;;;;;6.78;100.00;103798.16;10264726;28;20053;-70
2021/12/17 13:39:59;;;;;;;18.30;9.60;;;;;;;6.85;100.00;103804.41;10261008;28;20079;-71
2021/12/17 13:45:00;;;;;;;17.17;9.60;;;;;;;6.90;100.00;103804.59;10264068;28;20072;-70
2021/12/17 13:50:09;;;;;;;18.50;9.85;;;;;;;6.84;100.00;103800.00;10268073;28;20414;-70
2021/12/17 13:55:12;;;;;;;12.73;6.30;;;;;;;6.81;100.00;103810.50;10258612;28;20057;-70
2021/12/17 14:00:20;;;;;;;17.33;8.80;;;;;;;6.84;100.00;103813.59;10265349;28;20111;-70
2021/12/17 14:05:25;;;;;;;16.98;8.65;;;;;;;6.92;100.00;103804.38;10261031;28;20048;-69
2021/12/17 14:10:24;;;;;;;16.90;9.18;;;;;;;6.86;100.00;103808.78;10264046;28;20052;-69
2021/12/17 14:15:24;;;;;;;15.32;8.18;;;;;;;6.86;100.00;103800.63;10265750;28;20072;-70
2021/12/17 14:20:36;;;;;;;14.32;7.40;;;;;;;6.97;100.00;103806.44;10264445;28;20482;-70
2021/12/17 14:25:42;;;;;;;16.77;7.57;;;;;;;6.97;100.00;103801.00;10245708;28;20132;-69
2021/12/17 14:30:41;;;;;;;14.38;6.82;;;;;;;6.98;100.00;103805.38;10253722;28;20596;-69
2021/12/17 14:35:42;;;;;;;14.80;6.97;;;;;;;7.07;100.00;103812.22;10255719;28;20045;-69
2021/12/17 14:45:42;;;;;;;15.90;7.72;;;;;;;7.11;100.00;103802.59;10255954;28;20233;-69
2021/12/17 15:06:42;;;;;;;13.32;8.38;;;;;;;7.24;100.00;103786.19;10239424;28;20095;-69
2021/12/17 15:11:42;;;;;;;18.35;8.82;;;;;;;7.27;100.00;103785.72;10243750;28;20483;-69
2021/12/17 15:16:39;;;;;;;19.25;11.52;;;;;;;7.31;100.00;103791.53;10243588;28;20538;-69
2021/12/17 15:21:38;;;;;;;22.58;12.30;;;;;;;7.40;100.00;103794.84;10247143;28;20077;-69
2021/12/17 15:26:35;;;;;;;16.33;10.70;;;;;;;7.31;100.00;103797.00;10254540;28;20123;-70
2021/12/17 15:31:31;;;;;;;17.10;8.98;;;;;;;7.30;100.00;103796.16;10247855;28;20077;-70
2021/12/17 15:36:28;;;;;;;12.13;8.00;;;;;;;7.34;100.00;103786.50;10258156;28;20111;-70
2021/12/17 15:41:24;;;;;;;10.18;5.72;;;;;;;7.35;100.00;103777.28;10275127;28;20083;-70
2021/12/17 15:46:21;;;;;;;7.97;5.20;;;;;;;7.38;100.00;103768.69;10273953;28;20044;-70
2021/12/17 15:51:17;;;;;;;13.32;8.32;;;;;;;7.41;100.00;103801.97;10260593;28;20098;-70
2021/12/17 15:56:14;;;;;;;16.10;11.18;;;;;;;7.38;100.00;103795.91;10259704;28;20095;-70
2021/12/17 16:01:11;;;;;;;18.00;11.32;;;;;;;7.28;100.00;103798.28;10260941;28;20144;-69
2021/12/17 16:06:08;;;;;;;15.55;10.13;;;;;;;7.29;100.00;103789.06;10266622;28;20045;-70
2021/12/17 16:21:23;;;;;;;6.30;3.33;;;;;;;6.97;100.00;103790.94;10266099;28;20041;-70
2021/12/17 16:26:22;;;;;;;5.15;3.00;;;;;;;6.91;100.00;103787.19;10267852;28;20096;-70
2021/12/17 16:31:22;;;;;;;7.07;4.25;;;;;;;6.87;100.00;103801.44;10259302;28;20076;-70
2021/12/17 16:36:18;;;;;;;6.05;3.60;;;;;;;6.72;100.00;103788.16;10238776;28;20053;-70
2021/12/17 16:41:16;;;;;;;7.45;4.40;;;;;;;6.65;100.00;103790.06;10248249;28;20061;-70
2021/12/17 16:51:17;;;;;;;8.88;4.97;;;;;;;6.66;100.00;103778.13;10256165;28;20099;-70
2021/12/17 16:56:15;;;;;;;8.73;4.75;;;;;;;6.71;100.00;103794.66;10253802;28;20068;-69
2021/12/17 17:01:11;;;;;;;7.93;4.85;;;;;;;6.60;100.00;103779.00;10251309;28;20095;-69
2021/12/17 17:06:09;;;;;;;10.40;5.72;;;;;;;6.58;100.00;103781.09;10260392;28;20045;-70
2021/12/17 17:11:08;;;;;;;18.70;8.80;;;;;;;6.58;100.00;103787.38;10266170;28;20073;-69
2021/12/17 17:16:05;;;;;;;21.33;11.63;;;;;;;6.59;100.00;103788.19;10267929;28;20443;-69
2021/12/17 17:21:10;;;;;;;23.75;12.40;;;;;;;6.42;100.00;103787.84;10263237;28;20094;-69
2021/12/17 17:26:09;;;;;;;36.70;17.95;;;;;;;6.52;100.00;103777.34;10253080;28;20099;-69
2021/12/17 17:31:05;;;;;;;25.17;13.65;;;;;;;6.41;100.00;103770.72;10253772;28;20049;-69
2021/12/17 17:36:02;;;;;;;28.38;16.42;;;;;;;6.38;100.00;103771.13;10248358;28;20076;-69
2021/12/17 17:40:59;;;;;;;34.05;16.38;;;;;;;6.30;100.00;103768.66;10253345;28;20044;-69
2021/12/17 17:45:56;;;;;;;38.47;21.08;;;;;;;6.42;100.00;103766.94;10249454;28;20045;-69
2021/12/17 17:50:52;;;;;;;31.83;19.23;;;;;;;6.37;100.00;103772.19;10247078;28;20040;-69
2021/12/17 17:55:49;;;;;;;36.70;20.00;;;;;;;6.43;100.00;103775.91;10244875;28;20147;-69
2021/12/17 18:00:45;;;;;;;37.25;21.98;;;;;;;6.32;100.00;103772.00;10245531;28;20131;-69
2021/12/17 18:05:43;;;;;;;38.70;20.95;;;;;;;6.38;100.00;103776.56;10261121;28;20095;-69
2021/12/17 18:10:43;;;;;;;35.88;20.77;;;;;;;6.34;100.00;103779.97;10255199;28;20044;-69
2021/12/17 18:15:39;;;;;;;35.53;20.75;;;;;;;6.44;100.00;103780.31;10254198;28;20068;-70
2021/12/17 18:20:36;;;;;;;40.10;23.27;;;;;;;6.42;100.00;103788.69;10246042;28;20088;-70
2021/12/17 18:25:32;;;;;;;33.00;20.52;;;;;;;6.54;100.00;103786.13;10251458;28;20057;-70
2021/12/17 18:30:29;;;;;;;33.55;17.48;;;;;;;6.56;100.00;103788.63;10254551;28;20095;-70
2021/12/17 18:35:26;;;;;;;26.45;17.30;;;;;;;6.55;100.00;103792.41;10251465;28;20072;-70
2021/12/17 18:40:25;;;;;;;21.88;13.70;;;;;;;6.51;100.00;103792.00;10250279;28;20068;-75
2021/12/17 18:45:22;;;;;;;17.50;11.60;;;;;;;6.45;100.00;103792.84;10244007;28;20049;-69
2021/12/17 18:50:19;;;;;;;19.10;11.75;;;;;;;6.43;100.00;103779.50;10252723;28;21339;-69
2021/12/17 18:55:15;;;;;;;22.38;14.20;;;;;;;6.42;100.00;103799.56;10248328;28;20126;-70
2021/12/17 19:00:15;;;;;;;20.63;11.65;;;;;;;6.41;100.00;103797.91;10243741;28;20049;-69
2021/12/17 19:05:12;;;;;;;20.23;12.63;;;;;;;6.35;100.00;103798.75;10233958;28;20140;-70
2021/12/17 19:10:09;;;;;;;17.75;11.20;;;;;;;6.40;100.00;103800.81;10244668;28;20661;-70
2021/12/17 19:15:07;;;;;;;19.67;12.63;;;;;;;6.43;100.00;103801.25;10258724;28;20069;-70
2021/12/17 19:20:13;;;;;;;21.88;12.75;;;;;;;6.46;100.00;103803.53;10261250;28;20049;-69
2021/12/17 19:25:12;;;;;;;18.27;10.73;;;;;;;6.43;100.00;103811.25;10260623;28;20076;-71
2021/12/17 19:30:13;;;;;;;14.70;10.27;;;;;;;6.55;100.00;103816.88;10263017;28;20534;-71
2021/12/17 19:35:12;;;;;;;12.35;9.05;;;;;;;6.46;100.00;103808.97;10250412;28;20130;-71
2021/12/17 19:40:10;;;;;;;14.52;9.60;;;;;;;6.48;100.00;103823.16;10262483;28;20162;-71
2021/12/17 19:45:07;;;;;;;12.98;9.38;;;;;;;6.56;100.00;103815.81;10263952;28;20099;-71
2021/12/17 19:50:11;;;;;;;12.48;9.80;;;;;;;6.58;100.00;103806.41;10255590;28;21820;-71
2021/12/17 19:55:09;;;;;;;10.65;7.78;;;;;;;6.57;100.00;103806.59;10251368;28;20088;-71
2021/12/17 20:00:14;;;;;;;11.35;7.55;;;;;;;6.63;100.00;103803.03;10239924;28;20076;-70
2021/12/17 20:05:12;;;;;;;9.95;6.22;;;;;;;6.66;100.00;103799.88;10260878;28;20602;-69
2021/12/17 20:10:09;;;;;;;12.73;8.32;;;;;;;6.72;100.00;103801.75;10257723;28;20074;-69
2021/12/17 20:15:07;;;;;;;11.60;8.07;;;;;;;6.66;100.00;103797.16;10257940;28;20080;-69
2021/12/17 20:20:04;;;;;;;13.50;9.35;;;;;;;6.67;100.00;103804.28;10265249;28;20044;-69
2021/12/17 20:25:06;;;;;;;11.20;8.35;;;;;;;6.58;100.00;103806.41;10268054;28;20163;-69
2021/12/17 20:30:09;;;;;;;10.27;6.68;;;;;;;6.68;100.00;103811.38;10264536;28;20087;-69
2021/12/17 20:35:06;;;;;;;;;;;;;;;6.56;100.00;103823.97;10267687;28;20084;-69
2021/12/17 20:40:06;;;;;;;9.55;6.35;;;;;;;6.59;100.00;103820.81;10263775;28;20020;-71
2021/12/17 20:45:04;;;;;;;10.00;5.82;;;;;;;6.62;100.00;103823.97;10273950;28;20486;-69
2021/12/17 20:50:05;;;;;;;12.25;6.45;;;;;;;6.65;100.00;103820.81;10265109;28;20076;-69
2021/12/17 20:55:03;;;;;;;9.40;6.03;;;;;;;6.68;100.00;103816.81;10258319;28;20049;-65
2021/12/17 21:00:00;;;;;;;10.25;6.78;;;;;;;6.72;100.00;103826.22;10256640;28;20037;-69
2021/12/17 21:04:56;;;;;;;8.85;5.60;;;;;;;6.74;100.00;103830.38;10248233;28;20094;-69
2021/12/17 21:09:53;;;;;;;9.65;5.93;;;;;;;6.71;100.00;103835.44;10262758;28;20053;-68
2021/12/17 21:14:49;;;;;;;8.35;4.95;;;;;;;6.63;100.00;103838.38;10264219;28;20141;-69
2021/12/17 21:19:46;;;;;;;7.22;4.57;;;;;;;6.64;100.00;103842.78;10263413;28;20049;-68
2021/12/17 21:24:44;;;;;;;6.20;4.10;;;;;;;6.63;100.00;103838.38;10251576;28;20484;-71
2021/12/17 21:29:40;;;;;;;8.00;4.82;;;;;;;6.68;100.00;103846.72;10257227;28;20474;-69
2021/12/17 21:34:37;;;;;;;8.20;5.13;;;;;;;6.67;100.00;103845.91;10263564;28;20044;-69
2021/12/17 21:39:34;;;;;;;8.38;5.13;;;;;;;6.64;100.00;103845.50;10262934;28;20152;-68
2021/12/17 21:44:37;;;;;;;7.93;4.85;;;;;;;6.67;100.00;103842.34;10258202;28;20053;-68
2021/12/17 21:49:33;;;;;;;;;;;;;;;6.65;100.00;103830.84;10269517;28;20080;-69
2021/12/17 21:54:30;;;;;;;9.75;5.47;;;;;;;6.64;100.00;103834.63;10270847;28;20417;-69
2021/12/17 21:59:26;;;;;;;9.43;6.38;;;;;;;6.68;100.00;103824.97;10257475;28;20072;-69
2021/12/17 22:04:25;;;;;;;8.60;5.43;;;;;;;6.67;100.00;103820.59;10265912;28;20068;-69
2021/12/17 22:09:22;;;;;;;7.97;5.28;;;;;;;6.66;100.00;103818.91;10260950;28;20049;-69
2021/12/17 22:14:20;;;;;;;7.90;4.72;;;;;;;6.66;100.00;103811.59;10261343;28;20073;-69
2021/12/17 22:19:16;;;;;;;9.68;5.60;;;;;;;6.62;100.00;103820.41;10261932;28;20152;-69
2021/12/17 22:24:14;;;;;;;9.85;5.30;;;;;;;6.71;100.00;103821.84;10267952;28;20317;-69
2021/12/17 22:29:11;;;;;;;16.00;9.10;;;;;;;6.77;100.00;103810.06;10267671;28;20411;-69
2021/12/17 22:34:07;;;;;;;10.30;6.85;;;;;;;6.85;100.00;103804.41;10266108;28;20114;-69
2021/12/17 22:39:10;;;;;;;8.43;6.18;;;;;;;6.86;100.00;103806.06;10258637;28;20625;-67
2021/12/17 22:44:08;;;;;;;8.20;5.00;;;;;;;6.47;100.00;103801.63;10248888;28;20053;-68
2021/12/17 22:49:05;;;;;;;10.88;5.18;;;;;;;6.70;100.00;103806.56;10246456;28;20136;-68
2021/12/17 22:54:01;;;;;;;8.80;5.15;;;;;;;6.70;100.00;103806.56;10249362;28;20698;-69
2021/12/17 22:59:01;;;;;;;7.78;4.78;;;;;;;6.72;100.00;103799.84;10253333;28;20093;-69
2021/12/17 23:04:26;;;;;;;9.10;5.55;;;;;;;6.65;100.00;103799.03;10246622;28;20041;-69
2021/12/17 23:09:27;;;;;;;9.05;5.15;;;;;;;6.56;100.00;103799.50;10246233;28;20033;-69
2021/12/17 23:14:31;;;;;;;8.48;4.93;;;;;;;6.66;100.00;103805.31;10247510;28;20717;-69
2021/12/17 23:19:28;;;;;;;9.10;5.28;;;;;;;6.61;100.00;103789.66;10250137;28;20081;-69
2021/12/17 23:24:25;;;;;;;9.02;5.47;;;;;;;6.63;100.00;103789.44;10243028;28;20045;-69
2021/12/17 23:29:22;;;;;;;10.43;6.28;;;;;;;6.59;100.00;103790.91;10252594;28;20049;-69
2021/12/17 23:34:41;;;;;;;12.27;7.68;;;;;;;6.70;100.00;103787.53;10255737;28;20085;-69
2021/12/17 23:39:38;;;;;;;10.85;6.45;;;;;;;6.77;100.00;103791.03;10249917;28;20090;-69
2021/12/17 23:44:34;;;;;;;16.35;8.07;;;;;;;6.71;100.00;103786.50;10249690;28;20544;-67
2021/12/17 23:49:31;;;;;;;14.88;8.80;;;;;;;6.64;100.00;103780.25;10239322;28;20046;-68
2021/12/17 23:54:27;;;;;;;14.52;8.43;;;;;;;6.65;100.00;103781.91;10243140;28;20099;-68
2021/12/17 23:59:24;;;;;;;15.90;9.30;;;;;;;6.62;100.00;103779.63;10253495;28;20132;-67
